Time;durP1;ratioP1;P1;durP2;ratioP2;P2;SDS_P1;SDS_P2;PMS_P1;PMS_P2;Temp;Humidity;BMP_temperature;BMP_pressure;BME280_temperature;BME280_humidity;BME280_pressure;Samples;Min_cycle;Max_cycle;Signal;HPM_P1;HPM_P2
2023/11/18 00:01:03;;;;;;;22.83;13.43;;;;;;;3.79;100.00;102407.00;5031595;28;20052;-75
2023/11/18 00:03:28;;;;;;;32.88;14.60;;;;;;;3.75;100.00;102405.38;5030931;28;20056;-75
2023/11/18 00:05:54;;;;;;;30.63;13.85;;;;;;;3.71;100.00;102409.88;5031951;28;20442;-76
2023/11/18 00:08:19;;;;;;;29.30;13.57;;;;;;;3.70;100.00;102405.53;5030577;28;20513;-76
2023/11/18 00:10:45;;;;;;;24.88;13.45;;;;;;;3.68;100.00;102399.47;5031268;28;20384;-76
2023/11/18 00:13:10;;;;;;;29.58;13.13;;;;;;;3.64;100.00;102394.38;5031624;28;20038;-74
2023/11/18 00:15:36;;;;;;;19.95;11.27;;;;;;;3.58;100.00;102394.59;5031583;28;20436;-75
2023/11/18 00:18:01;;;;;;;27.38;13.23;;;;;;;3.49;100.00;102387.88;5031153;28;20029;-75
2023/11/18 00:20:26;;;;;;;26.75;12.70;;;;;;;3.43;100.00;102398.63;5030378;28;20382;-75
2023/11/18 00:22:53;;;;;;;20.75;12.05;;;;;;;3.39;100.00;102399.66;5031139;28;20041;-75
2023/11/18 00:25:18;;;;;;;27.45;12.88;;;;;;;3.31;100.00;102400.81;5031467;28;20041;-75
2023/11/18 00:27:43;;;;;;;27.38;13.27;;;;;;;3.28;100.00;102403.50;5030104;28;20401;-75
2023/11/18 00:30:10;;;;;;;20.33;13.02;;;;;;;3.25;100.00;102402.78;5031308;28;20041;-75
2023/11/18 00:32:37;;;;;;;27.35;12.63;;;;;;;3.23;100.00;102401.97;5031373;28;20033;-74
2023/11/18 00:35:04;;;;;;;29.83;14.70;;;;;;;3.26;100.00;102409.75;5030726;28;20461;-75
2023/11/18 00:37:30;;;;;;;34.35;16.00;;;;;;;3.29;100.00;102407.88;5031255;28;20033;-75
2023/11/18 00:39:56;;;;;;;27.33;14.73;;;;;;;3.37;100.00;102414.66;5030834;28;20026;-76
2023/11/18 00:42:22;;;;;;;40.50;17.75;;;;;;;3.43;100.00;102414.41;5031266;28;20033;-76
2023/11/18 00:44:47;;;;;;;37.45;18.65;;;;;;;3.48;100.00;102415.97;5031364;28;20117;-75
2023/11/18 00:47:13;;;;;;;29.83;16.17;;;;;;;3.52;100.00;102407.06;5031153;28;20113;-76
2023/11/18 00:49:38;;;;;;;40.85;18.15;;;;;;;3.57;100.00;102411.28;5031399;28;20393;-75
2023/11/18 00:52:04;;;;;;;35.50;17.25;;;;;;;3.60;100.00;102398.91;5030530;28;20039;-77
2023/11/18 00:54:30;;;;;;;27.27;15.80;;;;;;;3.62;100.00;102407.59;5029916;28;20053;-74
2023/11/18 00:56:55;;;;;;;34.33;17.77;;;;;;;3.65;100.00;102407.47;5030729;28;20037;-76
2023/11/18 00:59:21;;;;;;;28.20;17.45;;;;;;;3.68;100.00;102410.00;5031401;28;20037;-75
2023/11/18 01:01:46;;;;;;;29.77;17.15;;;;;;;3.69;100.00;102413.50;5031180;28;20037;-75
2023/11/18 01:04:11;;;;;;;32.03;18.02;;;;;;;3.72;100.00;102416.03;5030720;28;20030;-75
2023/11/18 01:06:37;;;;;;;39.72;19.02;;;;;;;3.75;100.00;102412.41;5032956;28;20033;-76
2023/11/18 01:09:03;;;;;;;34.33;18.13;;;;;;;3.77;100.00;102414.06;5034672;28;20357;-76
2023/11/18 01:11:29;;;;;;;35.08;17.98;;;;;;;3.77;100.00;102406.16;5034703;28;20040;-76
2023/11/18 01:13:55;;;;;;;35.20;18.23;;;;;;;3.78;100.00;102405.25;5034539;28;20045;-76
2023/11/18 01:16:20;;;;;;;31.92;18.48;;;;;;;3.82;100.00;102412.13;5033773;28;20044;-75
2023/11/18 01:18:46;;;;;;;37.85;19.48;;;;;;;3.84;100.00;102414.72;5034911;28;20393;-75
2023/11/18 01:21:12;;;;;;;41.25;19.77;;;;;;;3.86;100.00;102410.25;5034696;28;20170;-75
2023/11/18 01:23:38;;;;;;;33.65;18.17;;;;;;;3.86;100.00;102413.72;5034574;28;20073;-75
2023/11/18 01:26:05;;;;;;;33.72;17.90;;;;;;;3.90;100.00;102425.00;5034346;28;20051;-75
2023/11/18 01:28:38;;;;;;;40.45;19.13;;;;;;;3.93;100.00;102424.91;5034890;28;20156;-75
2023/11/18 01:31:04;;;;;;;46.33;19.33;;;;;;;3.94;100.00;102431.00;5034094;28;20060;-75
2023/11/18 01:33:32;;;;;;;38.65;18.40;;;;;;;3.97;100.00;102438.78;5034576;28;20033;-74
2023/11/18 01:35:58;;;;;;;44.83;18.42;;;;;;;3.97;100.00;102429.16;5034224;28;20218;-75
2023/11/18 01:38:23;;;;;;;42.80;18.83;;;;;;;3.99;100.00;102424.66;5033316;28;20466;-74
2023/11/18 01:40:48;;;;;;;37.10;17.35;;;;;;;4.00;100.00;102436.03;5034246;28;20091;-75
2023/11/18 01:43:14;;;;;;;34.92;17.27;;;;;;;4.00;100.00;102436.03;5034091;28;20041;-75
2023/11/18 01:45:42;;;;;;;34.00;18.10;;;;;;;4.00;100.00;102434.28;5033074;28;20037;-75
2023/11/18 01:48:09;;;;;;;40.35;17.52;;;;;;;4.00;100.00;102438.69;5034169;28;20053;-75
2023/11/18 01:50:37;;;;;;;37.30;17.27;;;;;;;3.98;100.00;102432.63;5034504;28;20045;-75
2023/11/18 01:53:03;;;;;;;39.10;17.08;;;;;;;3.97;100.00;102428.25;5033626;28;20066;-75
2023/11/18 01:55:29;;;;;;;45.80;18.17;;;;;;;3.98;100.00;102428.19;5034096;28;20049;-76
2023/11/18 01:57:56;;;;;;;36.28;18.13;;;;;;;4.01;100.00;102427.25;5034227;28;20124;-75
2023/11/18 02:00:23;;;;;;;42.03;19.35;;;;;;;4.04;100.00;102429.75;5034050;28;20030;-76
2023/11/18 02:02:49;;;;;;;48.08;18.80;;;;;;;4.05;100.00;102434.97;5034200;28;20120;-76
2023/11/18 02:05:16;;;;;;;38.72;18.02;;;;;;;4.06;100.00;102433.19;5033741;28;20037;-76
2023/11/18 02:07:43;;;;;;;34.88;17.70;;;;;;;4.08;100.00;102439.25;5033921;28;20030;-75
2023/11/18 02:10:09;;;;;;;38.03;18.55;;;;;;;4.05;100.00;102439.38;5033628;28;20048;-76
2023/11/18 02:12:43;;;;;;;30.63;16.15;;;;;;;4.05;100.00;102442.03;5033784;28;20044;-75
2023/11/18 02:15:12;;;;;;;37.80;16.88;;;;;;;4.03;100.00;102439.44;5033144;28;20022;-75
2023/11/18 02:17:42;;;;;;;34.97;17.90;;;;;;;4.04;100.00;102437.66;5033694;28;20030;-76
2023/11/18 02:20:15;;;;;;;39.63;18.85;;;;;;;4.05;100.00;102431.47;5033337;28;20041;-76
2023/11/18 02:22:42;;;;;;;35.47;18.35;;;;;;;4.06;100.00;102418.25;5033443;28;20045;-75
2023/11/18 02:25:10;;;;;;;46.03;20.27;;;;;;;4.10;100.00;102418.13;5033353;28;20115;-76
2023/11/18 02:27:37;;;;;;;40.10;20.65;;;;;;;4.12;100.00;102411.03;5033669;28;20041;-76
2023/11/18 02:30:03;;;;;;;40.17;18.98;;;;;;;4.15;100.00;102406.50;5033195;28;20038;-77
2023/11/18 02:32:47;;;;;;;38.72;18.80;;;;;;;4.18;100.00;102403.75;5033354;28;20030;-75
2023/11/18 02:35:23;;;;;;;40.95;19.92;;;;;;;4.21;100.00;102397.47;5032714;28;20438;-75
2023/11/18 02:37:51;;;;;;;44.25;19.27;;;;;;;4.22;100.00;102401.84;5033508;28;20040;-75
2023/11/18 02:40:20;;;;;;;38.10;20.13;;;;;;;4.22;100.00;102404.47;5032820;28;20044;-75
2023/11/18 02:42:48;;;;;;;44.65;21.38;;;;;;;4.23;100.00;102409.69;5033163;28;20060;-75
2023/11/18 02:45:18;;;;;;;54.78;24.50;;;;;;;4.26;100.00;102402.59;5032504;28;20065;-77
2023/11/18 02:47:47;;;;;;;42.95;23.25;;;;;;;4.30;100.00;102388.38;5031733;28;20371;-76
2023/11/18 02:50:15;;;;;;;52.90;24.73;;;;;;;4.30;100.00;102388.38;5031638;28;20041;-76
2023/11/18 02:52:40;;;;;;;55.85;23.67;;;;;;;4.32;100.00;102386.53;5032887;28;20040;-76
2023/11/18 02:55:07;;;;;;;53.83;25.27;;;;;;;4.35;100.00;102384.63;5031895;28;20049;-76
2023/11/18 02:57:33;;;;;;;50.78;23.85;;;;;;;4.35;100.00;102389.91;5032047;28;20079;-75
2023/11/18 03:00:00;;;;;;;49.60;24.70;;;;;;;4.37;100.00;102387.22;5032254;28;20326;-75
2023/11/18 03:02:30;;;;;;;56.40;24.77;;;;;;;4.37;100.00;102379.31;5031465;28;20244;-75
2023/11/18 03:04:59;;;;;;;55.35;26.08;;;;;;;4.39;100.00;102380.13;5031986;28;20042;-76
2023/11/18 03:07:26;;;;;;;46.92;24.27;;;;;;;4.40;100.00;102374.78;5031368;28;20033;-76
2023/11/18 03:09:52;;;;;;;47.60;22.98;;;;;;;4.39;100.00;102370.44;5030613;28;20072;-76
2023/11/18 03:12:17;;;;;;;54.50;25.55;;;;;;;4.40;100.00;102373.91;5031345;28;20056;-76
2023/11/18 03:14:43;;;;;;;44.90;22.48;;;;;;;4.41;100.00;102367.72;5031917;28;20469;-76
2023/11/18 03:17:09;;;;;;;42.47;21.75;;;;;;;4.41;100.00;102363.31;5031319;28;20120;-77
2023/11/18 03:19:35;;;;;;;47.58;23.75;;;;;;;4.42;100.00;102364.19;5031458;28;20477;-76
2023/11/18 03:22:01;;;;;;;47.58;22.90;;;;;;;4.42;100.00;102348.38;5031706;28;20112;-76
2023/11/18 03:24:28;;;;;;;42.70;20.45;;;;;;;4.42;100.00;102332.56;5029871;28;20095;-75
2023/11/18 03:26:57;;;;;;;40.78;21.95;;;;;;;4.43;100.00;102326.34;5031562;28;20029;-75
2023/11/18 03:29:22;;;;;;;44.88;20.42;;;;;;;4.44;100.00;102327.22;5030440;28;20099;-75
2023/11/18 03:31:49;;;;;;;42.28;21.50;;;;;;;4.45;100.00;102321.88;5031574;28;20472;-75
2023/11/18 03:34:19;;;;;;;48.92;20.27;;;;;;;4.46;100.00;102320.94;5030874;28;20037;-74
2023/11/18 03:36:46;;;;;;;36.10;18.88;;;;;;;4.48;100.00;102324.38;5031547;28;20524;-75
2023/11/18 03:39:11;;;;;;;41.90;18.92;;;;;;;4.46;100.00;102306.91;5029823;28;20071;-75
2023/11/18 03:41:37;;;;;;;40.75;17.67;;;;;;;4.49;100.00;102293.59;5031309;28;20477;-75
2023/11/18 03:44:04;;;;;;;42.35;18.02;;;;;;;4.50;100.00;102298.81;5031458;28;20091;-75
2023/11/18 03:46:32;;;;;;;28.13;16.42;;;;;;;4.51;100.00;102303.19;5030939;28;20065;-76
2023/11/18 03:48:57;;;;;;;39.47;16.10;;;;;;;4.52;100.00;102302.25;5030991;28;20033;-74
2023/11/18 03:51:23;;;;;;;33.08;14.82;;;;;;;4.56;100.00;102301.19;5030735;28;20116;-75
2023/11/18 03:53:48;;;;;;;28.73;14.30;;;;;;;4.57;100.00;102304.69;5031624;28;20420;-76
2023/11/18 03:56:18;;;;;;;26.53;14.73;;;;;;;4.57;100.00;102292.38;4993582;28;1089582;-76
2023/11/18 03:58:43;;;;;;;37.85;14.98;;;;;;;4.57;100.00;102286.25;5032325;28;20336;-75
2023/11/18 04:01:11;;;;;;;29.50;13.95;;;;;;;4.59;100.00;102287.03;5031845;28;20057;-75
2023/11/18 04:03:36;;;;;;;29.75;14.27;;;;;;;4.59;100.00;102279.97;5031248;28;20432;-74
2023/11/18 04:06:03;;;;;;;24.73;13.75;;;;;;;4.59;100.00;102264.16;5030427;28;20038;-74
2023/11/18 04:08:29;;;;;;;26.70;13.40;;;;;;;4.62;100.00;102263.16;5030912;28;20048;-76
2023/11/18 04:10:54;;;;;;;26.10;13.15;;;;;;;4.63;100.00;102264.00;5031604;28;20033;-75
2023/11/18 04:13:19;;;;;;;26.85;13.50;;;;;;;4.62;100.00;102257.06;5030851;28;20069;-76
2023/11/18 04:15:45;;;;;;;28.15;12.45;;;;;;;4.63;100.00;102264.00;5031639;28;20470;-76
2023/11/18 04:18:10;;;;;;;30.65;12.95;;;;;;;4.61;100.00;102250.91;5031597;28;20076;-76
2023/11/18 04:20:36;;;;;;;26.15;12.52;;;;;;;4.62;100.00;102238.59;5030843;28;20044;-76
2023/11/18 04:23:02;;;;;;;29.85;12.55;;;;;;;4.63;100.00;102250.84;5030148;28;20045;-76
2023/11/18 04:25:27;;;;;;;21.15;12.07;;;;;;;4.63;100.00;102258.75;5030978;28;20037;-77
2023/11/18 04:27:53;;;;;;;30.30;12.13;;;;;;;4.63;100.00;102253.47;5031422;28;20083;-76
2023/11/18 04:30:18;;;;;;;25.27;12.15;;;;;;;4.63;100.00;102241.16;5029519;28;20068;-76
2023/11/18 04:32:44;;;;;;;26.50;12.80;;;;;;;4.63;100.00;102240.28;5031100;28;20091;-76
2023/11/18 04:35:11;;;;;;;21.35;11.52;;;;;;;4.64;100.00;102242.84;5031014;28;20094;-75
2023/11/18 04:37:38;;;;;;;28.67;12.77;;;;;;;4.65;100.00;102243.75;5030777;28;20033;-76
2023/11/18 04:40:04;;;;;;;26.95;12.05;;;;;;;4.66;100.00;102237.50;5030905;28;20191;-75
2023/11/18 04:42:29;;;;;;;25.25;11.80;;;;;;;4.68;100.00;102239.16;5028739;28;20092;-75
2023/11/18 04:44:56;;;;;;;24.25;12.80;;;;;;;4.69;100.00;102229.50;5031028;28;20033;-76
2023/11/18 04:47:21;;;;;;;24.75;12.55;;;;;;;4.70;100.00;102236.47;5030672;28;20124;-76
2023/11/18 04:49:47;;;;;;;23.33;11.95;;;;;;;4.72;100.00;102232.00;5031107;28;20112;-76
2023/11/18 04:52:12;;;;;;;21.02;11.45;;;;;;;4.73;100.00;102220.50;5031129;28;20186;-75
2023/11/18 04:54:37;;;;;;;27.85;12.13;;;;;;;4.74;100.00;102212.53;5028945;28;20338;-76
2023/11/18 04:57:03;;;;;;;26.42;12.20;;;;;;;4.75;100.00;102208.13;5031247;28;20049;-76
2023/11/18 04:59:30;;;;;;;22.50;12.00;;;;;;;4.74;100.00;102201.97;5030980;28;20111;-76
2023/11/18 05:01:56;;;;;;;22.77;11.75;;;;;;;4.74;100.00;102201.97;5031233;28;20136;-76
2023/11/18 05:04:21;;;;;;;24.08;11.23;;;;;;;4.76;100.00;102196.63;5030585;28;20072;-77
2023/11/18 05:06:46;;;;;;;25.67;12.13;;;;;;;4.76;100.00;102194.00;5030884;28;20025;-76
2023/11/18 05:09:12;;;;;;;22.90;12.20;;;;;;;4.77;100.00;102188.66;5029662;28;20426;-75
2023/11/18 05:11:38;;;;;;;20.35;11.68;;;;;;;4.80;100.00;102184.19;5030553;28;20084;-76
2023/11/18 05:14:04;;;;;;;30.55;12.55;;;;;;;4.81;100.00;102173.56;5031005;28;20045;-76
2023/11/18 05:16:30;;;;;;;27.88;12.00;;;;;;;4.82;100.00;102179.69;5030760;28;20045;-75
2023/11/18 05:18:55;;;;;;;23.23;11.60;;;;;;;4.83;100.00;102169.06;5029690;28;20463;-74
2023/11/18 05:21:21;;;;;;;19.00;11.20;;;;;;;4.85;100.00;102177.78;5029579;28;20083;-76
2023/11/18 05:23:47;;;;;;;27.88;11.18;;;;;;;4.86;100.00;102170.72;5030424;28;20033;-76
2023/11/18 05:26:12;;;;;;;26.02;11.60;;;;;;;4.87;100.00;102146.91;5030843;28;20385;-75
2023/11/18 05:28:38;;;;;;;26.52;11.60;;;;;;;4.88;100.00;102151.28;5030439;28;20036;-74
2023/11/18 05:31:04;;;;;;;23.63;11.63;;;;;;;4.91;100.00;102145.88;5030992;28;20037;-76
2023/11/18 05:33:31;;;;;;;25.95;11.65;;;;;;;4.91;100.00;102148.50;5029062;28;20037;-76
2023/11/18 05:35:57;;;;;;;29.27;11.20;;;;;;;4.92;100.00;102150.19;5030491;28;20493;-76
2023/11/18 05:38:23;;;;;;;21.30;10.35;;;;;;;4.93;100.00;102149.28;5030821;28;20029;-76
2023/11/18 05:40:56;;;;;;;20.88;10.88;;;;;;;4.97;100.00;102133.31;5030052;28;20056;-76
2023/11/18 05:43:29;;;;;;;33.20;11.32;;;;;;;4.95;100.00;102118.41;5030502;28;20041;-75
2023/11/18 05:48:38;;;;;;;18.70;10.05;;;;;;;4.98;100.00;102120.03;5029285;28;20437;-76
2023/11/18 05:51:04;;;;;;;26.90;10.70;;;;;;;5.01;100.00;102113.78;5029353;28;20120;-76
2023/11/18 05:53:30;;;;;;;24.23;10.07;;;;;;;5.03;100.00;102122.47;5032948;28;20047;-76
2023/11/18 05:55:55;;;;;;;21.77;10.30;;;;;;;5.03;100.00;102133.00;5034321;28;20057;-76
2023/11/18 05:58:21;;;;;;;24.40;10.35;;;;;;;5.02;100.00;102118.13;5034146;28;20394;-76
2023/11/18 06:00:47;;;;;;;22.83;9.65;;;;;;;5.02;100.00;102113.69;5033469;28;20922;-76
2023/11/18 06:03:12;;;;;;;21.52;10.07;;;;;;;5.03;100.00;102123.34;5033891;28;20527;-75
2023/11/18 06:05:38;;;;;;;20.70;10.45;;;;;;;5.02;100.00;102110.22;5033219;28;20036;-76
2023/11/18 06:08:04;;;;;;;20.65;9.57;;;;;;;5.04;100.00;102105.72;5033748;28;20397;-76
2023/11/18 06:10:31;;;;;;;22.50;9.95;;;;;;;5.03;100.00;102104.00;5033470;28;20393;-77
2023/11/18 06:12:58;;;;;;;23.55;9.48;;;;;;;5.07;100.00;102093.22;5033704;28;20033;-76
2023/11/18 06:15:23;;;;;;;20.98;8.98;;;;;;;5.07;100.00;102093.22;5033698;28;20034;-76
2023/11/18 06:17:48;;;;;;;18.98;8.98;;;;;;;5.10;100.00;102115.97;5033297;28;20296;-76
2023/11/18 06:20:14;;;;;;;27.45;9.30;;;;;;;5.12;100.00;102115.00;5033624;28;20049;-76
2023/11/18 06:22:39;;;;;;;20.52;9.27;;;;;;;5.14;100.00;102106.16;5033187;28;20033;-76
2023/11/18 06:25:07;;;;;;;17.75;8.68;;;;;;;5.15;100.00;102106.06;5033623;28;20033;-75
2023/11/18 06:27:32;;;;;;;21.88;8.82;;;;;;;5.15;100.00;102099.94;5033237;28;20120;-76
2023/11/18 06:29:58;;;;;;;27.17;9.55;;;;;;;5.14;100.00;102083.25;5033398;28;20116;-77
2023/11/18 06:32:25;;;;;;;19.83;9.63;;;;;;;5.15;100.00;102087.59;5033314;28;20036;-75
2023/11/18 06:34:51;;;;;;;15.40;8.77;;;;;;;5.15;100.00;102087.59;5032527;28;20057;-76
2023/11/18 06:37:17;;;;;;;20.13;9.18;;;;;;;5.15;100.00;102097.28;5015303;28;20029;-76
2023/11/18 06:39:45;;;;;;;17.65;8.98;;;;;;;5.13;100.00;102097.34;5032915;28;20033;-76
2023/11/18 06:42:11;;;;;;;21.23;9.63;;;;;;;5.12;100.00;102101.78;5033396;28;20029;-76
2023/11/18 06:44:37;;;;;;;18.85;9.35;;;;;;;5.12;100.00;102090.41;5031449;28;20515;-76
2023/11/18 06:47:05;;;;;;;21.40;9.90;;;;;;;5.11;100.00;102093.94;5033115;28;20056;-75
2023/11/18 06:49:34;;;;;;;24.73;9.77;;;;;;;5.11;100.00;102084.25;5033288;28;20037;-76
2023/11/18 06:52:03;;;;;;;24.23;9.43;;;;;;;5.12;100.00;102091.25;5032884;28;20064;-75
2023/11/18 06:54:28;;;;;;;22.35;9.02;;;;;;;5.12;100.00;102096.50;5032736;28;20132;-75
2023/11/18 06:56:54;;;;;;;19.55;9.55;;;;;;;5.13;100.00;102097.34;5031308;28;20552;-75
2023/11/18 06:59:19;;;;;;;23.60;9.57;;;;;;;5.14;100.00;102088.53;5032996;28;20171;-74
2023/11/18 07:01:44;;;;;;;22.33;9.60;;;;;;;5.14;100.00;102090.31;5032404;28;20037;-75
2023/11/18 07:04:10;;;;;;;21.38;8.60;;;;;;;5.14;100.00;102087.69;5031898;28;20065;-76
2023/11/18 07:06:40;;;;;;;18.42;9.63;;;;;;;5.16;100.00;102096.38;5032490;28;20033;-79
2023/11/18 07:09:16;;;;;;;16.92;8.98;;;;;;;5.16;100.00;102097.22;5032862;28;20089;-76
2023/11/18 07:11:42;;;;;;;25.67;10.13;;;;;;;5.16;100.00;102101.66;5032191;28;20029;-76
2023/11/18 07:14:09;;;;;;;17.15;9.05;;;;;;;5.18;100.00;102099.78;5032573;28;20091;-76
2023/11/18 07:16:35;;;;;;;25.50;8.90;;;;;;;5.17;100.00;102108.63;5031194;28;20046;-76
2023/11/18 07:19:00;;;;;;;24.98;8.75;;;;;;;5.19;100.00;102117.31;5032063;28;20112;-76
2023/11/18 07:21:26;;;;;;;22.40;8.63;;;;;;;5.21;100.00;102116.34;5031144;28;20069;-76
2023/11/18 07:23:51;;;;;;;23.77;8.50;;;;;;;5.24;100.00;102117.94;5031703;28;20165;-77
2023/11/18 07:26:16;;;;;;;30.33;8.80;;;;;;;5.25;100.00;102112.59;5031075;28;20026;-76
2023/11/18 07:28:43;;;;;;;19.38;9.15;;;;;;;5.27;100.00;102102.00;5031665;28;20029;-76
2023/11/18 07:31:09;;;;;;;25.13;9.30;;;;;;;5.28;100.00;102101.94;5030858;28;20083;-76
2023/11/18 07:33:34;;;;;;;25.70;9.32;;;;;;;5.30;100.00;102101.84;5032197;28;20068;-76
2023/11/18 07:36:00;;;;;;;22.58;9.23;;;;;;;5.29;100.00;102089.56;5031771;28;20038;-76
2023/11/18 07:38:27;;;;;;;23.33;10.27;;;;;;;5.31;100.00;102079.78;5031811;28;20107;-76
2023/11/18 07:40:56;;;;;;;29.35;9.77;;;;;;;5.32;100.00;102078.03;5031728;28;20491;-76
2023/11/18 07:43:22;;;;;;;24.35;8.40;;;;;;;5.34;100.00;102071.72;5031748;28;20059;-76
2023/11/18 07:45:53;;;;;;;19.98;9.13;;;;;;;5.36;100.00;102069.00;5031714;28;20052;-76
2023/11/18 07:48:20;;;;;;;23.95;8.30;;;;;;;5.35;100.00;102068.16;5032356;28;20041;-78
2023/11/18 07:50:47;;;;;;;20.70;7.97;;;;;;;5.38;100.00;102057.44;5031470;28;20037;-77
2023/11/18 07:53:13;;;;;;;22.30;8.07;;;;;;;5.40;100.00;102060.00;5031808;28;20449;-76
2023/11/18 07:55:39;;;;;;;21.55;7.68;;;;;;;5.42;100.00;102056.38;5031840;28;20068;-77
2023/11/18 07:58:11;;;;;;;19.95;7.28;;;;;;;5.45;100.00;102050.09;5031440;28;20049;-78
2023/11/18 08:00:40;;;;;;;17.55;7.60;;;;;;;5.46;100.00;102052.66;5032217;28;20060;-78
2023/11/18 08:03:11;;;;;;;22.40;7.05;;;;;;;5.48;100.00;102052.59;5028237;28;20144;-77
2023/11/18 08:05:39;;;;;;;20.10;8.03;;;;;;;5.50;100.00;102055.16;5029132;28;20068;-77
2023/11/18 08:08:05;;;;;;;15.55;6.60;;;;;;;5.52;100.00;102054.13;5027065;28;20045;-78
2023/11/18 08:10:32;;;;;;;21.40;6.78;;;;;;;5.53;100.00;102049.72;5027939;28;20128;-78
2023/11/18 08:12:58;;;;;;;17.65;6.50;;;;;;;5.55;100.00;102053.13;5028399;28;20033;-79
2023/11/18 08:15:26;;;;;;;18.73;6.70;;;;;;;5.56;100.00;102060.13;5026913;28;20029;-77
2023/11/18 08:17:52;;;;;;;18.85;6.93;;;;;;;5.57;100.00;102048.59;5026806;28;20124;-76
2023/11/18 08:20:17;;;;;;;17.75;6.53;;;;;;;5.55;100.00;102043.41;5027405;28;20040;-79
2023/11/18 08:22:46;;;;;;;24.05;6.78;;;;;;;5.54;100.00;102038.19;5028707;28;20065;-78
2023/11/18 08:25:12;;;;;;;17.77;6.97;;;;;;;5.48;100.00;102056.06;5028365;28;20048;-81
2023/11/18 08:27:42;;;;;;;22.45;6.68;;;;;;;5.45;100.00;102037.75;5026433;28;20033;-81
2023/11/18 08:30:12;;;;;;;19.15;6.50;;;;;;;5.41;100.00;102032.69;5026683;28;20041;-78
2023/11/18 08:32:39;;;;;;;23.17;6.63;;;;;;;5.39;100.00;102029.25;5028495;28;20044;-77
2023/11/18 08:35:08;;;;;;;14.48;6.32;;;;;;;5.37;100.00;102017.94;5028074;28;20481;-86
2023/11/18 08:37:37;;;;;;;20.45;6.40;;;;;;;5.32;100.00;102010.25;5028690;28;20112;-78
2023/11/18 08:40:14;;;;;;;25.63;7.93;;;;;;;5.30;100.00;102007.69;5027588;28;20034;-85
2023/11/18 08:42:41;;;;;;;17.83;7.20;;;;;;;5.28;100.00;102006.91;5028702;28;20160;-81
2023/11/18 08:45:07;;;;;;;22.48;7.32;;;;;;;5.29;100.00;102002.47;5028142;28;20490;-80
2023/11/18 08:47:32;;;;;;;20.33;6.68;;;;;;;5.29;100.00;101997.22;5028309;28;20180;-85
2023/11/18 08:49:58;;;;;;;21.45;7.05;;;;;;;5.28;100.00;101990.22;5027865;28;20520;-83
2023/11/18 08:52:25;;;;;;;14.18;6.47;;;;;;;5.30;100.00;101996.28;5027942;28;20385;-81
2023/11/18 08:57:52;;;;;;;28.35;6.53;;;;;;;5.32;100.00;101972.44;5028015;28;20052;-78
2023/11/18 09:03:05;;;;;;;19.25;5.90;;;;;;;5.38;100.00;101956.31;5027997;28;20658;-78
2023/11/18 09:05:31;;;;;;;16.27;7.20;;;;;;;5.42;100.00;101952.56;5028528;28;20065;-77
2023/11/18 09:08:00;;;;;;;26.50;6.68;;;;;;;5.50;100.00;101952.19;5026875;28;20144;-76
2023/11/18 09:10:26;;;;;;;21.90;6.93;;;;;;;5.55;100.00;101943.06;5028753;28;20504;-76
2023/11/18 09:12:52;;;;;;;20.08;6.82;;;;;;;5.61;100.00;101931.34;5026394;28;20037;-79
2023/11/18 09:15:22;;;;;;;17.52;6.88;;;;;;;5.64;100.00;101937.34;5034695;28;20393;-77
2023/11/18 09:17:48;;;;;;;27.27;7.15;;;;;;;5.68;100.00;101934.53;5029767;28;20057;-79
2023/11/18 09:20:17;;;;;;;20.05;7.60;;;;;;;5.69;100.00;101937.09;5029471;28;20072;-78
2023/11/18 09:22:43;;;;;;;18.88;6.85;;;;;;;5.70;100.00;101940.56;5030060;28;20120;-78
2023/11/18 09:25:10;;;;;;;17.10;6.68;;;;;;;5.75;100.00;101949.13;5028658;28;20116;-78
2023/11/18 09:27:36;;;;;;;18.23;6.70;;;;;;;5.73;100.00;101928.09;5031433;28;20049;-80
2023/11/18 09:30:13;;;;;;;19.55;7.05;;;;;;;5.73;100.00;101927.22;5033432;28;20029;-77
2023/11/18 09:32:42;;;;;;;15.32;6.35;;;;;;;5.74;100.00;101927.13;5033650;28;20530;-78
2023/11/18 09:35:12;;;;;;;19.92;6.63;;;;;;;5.80;100.00;101926.78;5033236;28;20033;-87
2023/11/18 09:37:40;;;;;;;20.73;6.35;;;;;;;5.81;100.00;101936.44;5033836;28;20029;-80
2023/11/18 09:40:14;;;;;;;18.40;6.70;;;;;;;5.80;100.00;101924.16;5033132;28;20034;-78
2023/11/18 09:42:42;;;;;;;21.83;6.70;;;;;;;5.80;100.00;101918.03;5033277;28;20108;-78
2023/11/18 09:45:13;;;;;;;22.08;6.97;;;;;;;5.81;100.00;101915.31;5033407;28;20056;-78
2023/11/18 09:47:47;;;;;;;15.45;6.25;;;;;;;5.83;100.00;101897.56;5033070;28;20033;-80
2023/11/18 09:50:17;;;;;;;14.02;6.07;;;;;;;5.85;100.00;101910.69;5031797;28;20029;-78
2023/11/18 09:52:51;;;;;;;17.80;5.40;;;;;;;5.86;100.00;101912.41;5033291;28;20112;-83
2023/11/18 09:55:32;;;;;;;22.63;6.20;;;;;;;5.90;100.00;101902.56;5032653;28;20162;-82
2023/11/18 09:58:08;;;;;;;24.17;6.53;;;;;;;5.90;100.00;101903.41;5031587;28;20408;-81
2023/11/18 10:00:41;;;;;;;12.38;5.63;;;;;;;5.90;100.00;101892.84;5033528;28;20128;-80
2023/11/18 10:03:08;;;;;;;15.35;5.57;;;;;;;5.90;100.00;101910.47;5032857;28;20037;-80
2023/11/18 10:05:36;;;;;;;20.02;5.72;;;;;;;5.93;100.00;101905.03;5033222;28;20470;-80
2023/11/18 10:08:05;;;;;;;16.90;5.30;;;;;;;5.93;100.00;101908.50;5032731;28;20033;-78
2023/11/18 10:10:36;;;;;;;20.55;5.57;;;;;;;5.94;100.00;101915.50;5033408;28;20036;-79
2023/11/18 10:13:04;;;;;;;13.60;5.67;;;;;;;5.96;100.00;101913.63;5032591;28;20025;-80
2023/11/18 10:15:31;;;;;;;13.38;5.07;;;;;;;5.97;100.00;101893.38;5033130;28;20088;-77
2023/11/18 10:17:59;;;;;;;15.98;5.10;;;;;;;5.99;100.00;101891.50;5033098;28;20484;-79
2023/11/18 10:20:41;;;;;;;13.43;4.57;;;;;;;6.04;100.00;101884.19;5033167;28;20045;-75
2023/11/18 10:23:10;;;;;;;15.10;4.80;;;;;;;6.04;100.00;101878.06;5032672;28;20124;-79
2023/11/18 10:25:57;;;;;;;15.57;4.57;;;;;;;6.07;100.00;101870.78;5033129;28;20029;-78
2023/11/18 10:28:36;;;;;;;12.93;4.68;;;;;;;6.07;100.00;101869.97;5033334;28;20056;-79
2023/11/18 10:31:09;;;;;;;14.20;4.00;;;;;;;6.07;100.00;101864.66;5032788;28;20037;-79
2023/11/18 10:33:41;;;;;;;15.73;4.22;;;;;;;6.08;100.00;101874.31;5033329;28;20128;-80
2023/11/18 10:36:23;;;;;;;11.30;4.18;;;;;;;6.05;100.00;101859.47;5032690;28;20117;-79
2023/11/18 10:38:51;;;;;;;16.35;4.32;;;;;;;6.07;100.00;101851.47;5031922;28;20022;-75
2023/11/18 10:41:18;;;;;;;15.57;4.90;;;;;;;6.09;100.00;101839.00;5032927;28;20025;-77
2023/11/18 10:43:44;;;;;;;14.73;4.70;;;;;;;6.10;100.00;101815.13;5033662;28;20033;-77
2023/11/18 10:46:11;;;;;;;15.50;4.43;;;;;;;6.10;100.00;101796.63;5032761;28;20033;-78
2023/11/18 10:48:47;;;;;;;10.27;4.55;;;;;;;6.11;100.00;101790.44;5031594;28;20392;-75
2023/11/18 10:51:26;;;;;;;8.15;4.15;;;;;;;6.11;100.00;101771.94;5032727;28;20083;-81
2023/11/18 10:53:58;;;;;;;14.13;4.82;;;;;;;6.09;100.00;101736.81;5033701;28;20091;-78
2023/11/18 10:56:28;;;;;;;20.05;5.20;;;;;;;6.09;100.00;101696.31;5033047;28;20049;-74
2023/11/18 10:58:54;;;;;;;18.65;5.53;;;;;;;6.08;100.00;101674.34;5033812;28;20155;-78
2023/11/18 11:01:31;;;;;;;14.43;5.72;;;;;;;6.11;100.00;101678.59;5032330;28;20537;-80
2023/11/18 11:03:57;;;;;;;12.52;5.50;;;;;;;6.10;100.00;101690.94;5032853;28;20061;-80
2023/11/18 11:06:30;;;;;;;18.25;6.43;;;;;;;6.14;100.00;101689.84;5032277;28;20481;-78
2023/11/18 11:09:00;;;;;;;20.33;7.05;;;;;;;6.14;100.00;101689.84;5033030;28;20155;-78
2023/11/18 11:11:34;;;;;;;12.23;5.80;;;;;;;6.15;100.00;101694.19;5032380;28;20038;-78
2023/11/18 11:14:04;;;;;;;15.52;6.63;;;;;;;6.20;100.00;101683.34;5032916;28;20095;-77
2023/11/18 11:16:44;;;;;;;13.15;5.88;;;;;;;6.22;100.00;101670.88;5032627;28;20030;-80
2023/11/18 11:19:37;;;;;;;12.93;6.05;;;;;;;6.25;100.00;101651.34;5030671;28;20037;-79
2023/11/18 11:22:11;;;;;;;10.05;5.40;;;;;;;6.28;100.00;101656.47;5032674;28;20034;-78